Time;durP1;ratioP1;P1;durP2;ratioP2;P2;SDS_P1;SDS_P2;PMS_P1;PMS_P2;Temp;Humidity;BMP_temperature;BMP_pressure;BME280_temperature;BME280_humidity;BME280_pressure;Samples;Min_cycle;Max_cycle;Signal;HPM_P1;HPM_P2
2023/11/30 00:00:19;;;;;;;10.37;6.47;;;-2.20;99.90;;;;;;5053937;28;20216;-44
2023/11/30 00:02:45;;;;;;;12.20;7.27;;;-2.20;99.90;;;;;;5047695;28;20775;-47
2023/11/30 00:05:14;;;;;;;12.57;7.00;;;-2.20;99.90;;;;;;5063099;28;20216;-46
2023/11/30 00:07:40;;;;;;;10.93;7.30;;;-2.20;99.90;;;;;;5016366;28;20209;-50
2023/11/30 00:10:08;;;;;;;10.10;6.53;;;-2.30;99.90;;;;;;5060936;28;20302;-47
2023/11/30 00:12:35;;;;;;;10.13;6.63;;;-2.30;99.90;;;;;;5059802;28;20251;-52
2023/11/30 00:15:02;;;;;;;8.83;6.43;;;-2.30;99.90;;;;;;5051079;28;21230;-47
2023/11/30 00:17:29;;;;;;;9.87;6.70;;;-2.30;99.90;;;;;;5052889;28;20200;-53
2023/11/30 00:19:56;;;;;;;9.27;6.37;;;-2.30;99.90;;;;;;5060417;28;20199;-46
2023/11/30 00:22:24;;;;;;;10.07;6.40;;;-2.40;99.90;;;;;;5031678;28;20264;-48
2023/11/30 00:24:51;;;;;;;9.03;6.73;;;-2.50;99.90;;;;;;5058741;28;20516;-48
2023/11/30 00:27:18;;;;;;;10.93;6.90;;;-2.60;99.90;;;;;;5063199;28;20270;-48
2023/11/30 00:29:45;;;;;;;10.03;6.67;;;-2.60;99.90;;;;;;5057473;28;20933;-44
2023/11/30 00:32:11;;;;;;;9.20;6.40;;;-2.60;99.90;;;;;;5052784;28;20727;-44
2023/11/30 00:34:38;;;;;;;9.77;7.30;;;-2.70;99.90;;;;;;5047396;28;20278;-51
2023/11/30 00:37:05;;;;;;;13.03;7.70;;;-2.70;99.90;;;;;;5029691;28;20268;-45
2023/11/30 00:39:33;;;;;;;12.13;7.10;;;-2.70;99.90;;;;;;5060233;28;20255;-53
2023/11/30 00:42:10;;;;;;;12.07;6.50;;;-2.70;99.90;;;;;;5059282;28;20188;-44
2023/11/30 00:44:37;;;;;;;9.40;6.67;;;-2.70;99.90;;;;;;5057243;28;20212;-51
2023/11/30 00:47:04;;;;;;;11.03;6.63;;;-2.70;99.90;;;;;;5049087;28;20698;-49
2023/11/30 00:49:31;;;;;;;11.20;6.60;;;-2.70;99.90;;;;;;5052335;28;20668;-49
2023/11/30 00:51:57;;;;;;;11.03;7.17;;;-2.80;99.90;;;;;;5063978;28;20853;-52
2023/11/30 00:54:24;;;;;;;10.43;5.80;;;-2.70;99.90;;;;;;5031862;28;20336;-50
2023/11/30 00:56:52;;;;;;;11.83;6.93;;;-2.70;99.90;;;;;;5059971;28;20178;-55
2023/11/30 00:59:19;;;;;;;11.00;6.90;;;-2.80;99.90;;;;;;5066695;28;20194;-46
2023/11/30 01:01:46;;;;;;;10.23;7.33;;;-3.00;99.90;;;;;;5061079;28;20274;-45
2023/11/30 01:04:13;;;;;;;10.83;7.27;;;-3.00;99.90;;;;;;5047761;28;20589;-44
2023/11/30 01:06:40;;;;;;;11.10;7.57;;;-2.90;99.90;;;;;;5061983;28;20665;-51
2023/11/30 01:09:06;;;;;;;10.67;7.23;;;-2.90;99.90;;;;;;5034816;28;20217;-47
2023/11/30 01:11:34;;;;;;;13.13;7.30;;;-2.90;99.90;;;;;;5063044;28;20554;-52
2023/11/30 01:14:03;;;;;;;10.10;6.57;;;-2.90;99.90;;;;;;5064813;28;20195;-47
2023/11/30 01:16:30;;;;;;;11.20;7.50;;;-2.80;99.90;;;;;;5061462;28;20197;-53
2023/11/30 01:18:56;;;;;;;10.47;7.40;;;-2.80;99.90;;;;;;5053359;28;20241;-48
2023/11/30 01:21:23;;;;;;;9.77;6.90;;;-3.00;99.90;;;;;;5055470;28;20207;-48
2023/11/30 01:23:50;;;;;;;12.30;7.73;;;-3.20;99.90;;;;;;5025630;28;20416;-44
2023/11/30 01:26:17;;;;;;;9.13;6.70;;;-3.20;99.90;;;;;;5066013;28;20196;-48
2023/11/30 01:28:44;;;;;;;11.17;6.97;;;-3.30;99.90;;;;;;5061453;28;20193;-47
2023/11/30 01:31:12;;;;;;;10.47;7.43;;;-3.30;99.90;;;;;;5064997;28;20214;-50
2023/11/30 01:33:39;;;;;;;11.00;7.03;;;-3.30;99.90;;;;;;5061053;28;20195;-53
2023/11/30 01:36:07;;;;;;;11.53;7.40;;;-3.20;99.90;;;;;;5055955;28;20768;-46
2023/11/30 01:38:33;;;;;;;10.67;6.67;;;-3.20;99.90;;;;;;5047902;28;20192;-47
2023/11/30 01:41:00;;;;;;;9.03;6.87;;;-3.20;99.90;;;;;;5051529;28;20208;-47
2023/11/30 01:43:27;;;;;;;12.73;7.20;;;-3.20;99.90;;;;;;5064224;28;20196;-50
2023/11/30 01:45:54;;;;;;;11.53;7.63;;;-3.10;99.90;;;;;;5061930;28;20307;-46
2023/11/30 01:48:22;;;;;;;13.17;8.30;;;-3.00;99.90;;;;;;5064957;28;20199;-46
2023/11/30 01:50:50;;;;;;;9.60;6.80;;;-3.00;99.90;;;;;;5051420;28;20203;-49
2023/11/30 01:53:17;;;;;;;11.80;7.30;;;-2.90;99.90;;;;;;5064524;28;20244;-46
2023/11/30 01:55:45;;;;;;;14.23;7.43;;;-2.90;99.90;;;;;;5026699;28;20879;-47
2023/11/30 01:58:13;;;;;;;14.53;7.47;;;-2.80;99.90;;;;;;5062223;28;20194;-47
2023/11/30 02:00:41;;;;;;;10.03;7.80;;;-2.80;99.90;;;;;;5058747;28;20191;-52
2023/11/30 02:03:08;;;;;;;10.53;7.43;;;-2.70;99.90;;;;;;5064492;28;20263;-47
2023/11/30 02:05:38;;;;;;;11.43;6.77;;;-2.70;99.90;;;;;;5056724;28;20223;-50
2023/11/30 02:08:05;;;;;;;10.43;7.27;;;-2.60;99.90;;;;;;5061519;28;20212;-47
2023/11/30 02:10:32;;;;;;;12.60;7.23;;;-2.60;99.90;;;;;;5048199;28;20673;-50
2023/11/30 02:12:59;;;;;;;10.23;6.97;;;-2.60;99.90;;;;;;5048907;28;20716;-47
2023/11/30 02:15:25;;;;;;;11.70;6.83;;;-2.60;99.90;;;;;;5064034;28;20290;-48
2023/11/30 02:17:52;;;;;;;10.27;7.47;;;-2.60;99.90;;;;;;5054713;28;20819;-47
2023/11/30 02:20:19;;;;;;;9.37;7.10;;;-2.50;99.90;;;;;;5062324;28;20670;-47
2023/11/30 02:22:47;;;;;;;11.17;7.27;;;-2.50;99.90;;;;;;5051173;28;20196;-47
2023/11/30 02:25:14;;;;;;;10.43;7.23;;;-2.50;99.90;;;;;;5062658;28;20265;-52
2023/11/30 02:27:41;;;;;;;10.27;7.20;;;-2.50;99.90;;;;;;5020984;28;20223;-47
2023/11/30 02:30:09;;;;;;;8.63;6.87;;;-2.50;99.90;;;;;;5060677;28;20206;-48
2023/11/30 02:32:36;;;;;;;9.97;6.97;;;-2.50;99.90;;;;;;5060011;28;20213;-47
2023/11/30 02:35:04;;;;;;;11.30;7.57;;;-2.50;99.90;;;;;;5061257;28;20282;-46
2023/11/30 02:37:31;;;;;;;12.40;7.63;;;-2.50;99.90;;;;;;5049816;28;20234;-49
2023/11/30 02:39:59;;;;;;;8.97;6.27;;;-2.40;99.90;;;;;;5061881;28;20194;-48
2023/11/30 02:42:26;;;;;;;12.60;8.20;;;-2.40;99.90;;;;;;5032033;28;20761;-50
2023/11/30 02:44:53;;;;;;;9.73;7.57;;;-2.40;99.90;;;;;;5056171;28;20404;-49
2023/11/30 02:47:20;;;;;;;11.13;7.47;;;-2.40;99.90;;;;;;5062256;28;20188;-47
2023/11/30 02:49:47;;;;;;;12.37;7.30;;;-2.40;99.90;;;;;;5059816;28;20254;-48
2023/11/30 02:52:14;;;;;;;10.97;6.60;;;-2.40;99.90;;;;;;5063486;28;20255;-47
2023/11/30 02:54:41;;;;;;;10.63;7.13;;;-2.30;99.90;;;;;;5049536;28;20231;-49
2023/11/30 02:57:09;;;;;;;10.73;7.87;;;-2.30;99.90;;;;;;5040297;28;20769;-51
2023/11/30 02:59:36;;;;;;;11.20;7.40;;;-2.30;99.90;;;;;;5053473;28;20691;-48
2023/11/30 03:02:03;;;;;;;11.07;7.67;;;-2.20;99.90;;;;;;5060583;28;20217;-49
2023/11/30 03:04:30;;;;;;;11.23;7.60;;;-2.20;99.90;;;;;;5058078;28;20208;-48
2023/11/30 03:06:57;;;;;;;11.30;8.07;;;-2.20;99.90;;;;;;5063148;28;20190;-48
2023/11/30 03:09:25;;;;;;;10.10;7.10;;;-2.10;99.90;;;;;;5050690;28;20274;-46
2023/11/30 03:11:52;;;;;;;11.57;7.43;;;-2.10;99.90;;;;;;5061542;28;20206;-49
2023/11/30 03:14:20;;;;;;;10.27;7.50;;;-2.10;99.90;;;;;;5025279;28;20242;-48
2023/11/30 03:16:47;;;;;;;10.33;7.37;;;-2.10;99.90;;;;;;5061945;28;20231;-49
2023/11/30 03:19:13;;;;;;;13.60;7.20;;;-2.10;99.90;;;;;;5059400;28;20257;-49
2023/11/30 03:21:40;;;;;;;9.73;7.00;;;-2.10;99.90;;;;;;5063413;28;20393;-46
2023/11/30 03:24:08;;;;;;;14.17;7.47;;;-2.10;99.90;;;;;;5051547;28;20578;-49
2023/11/30 03:26:35;;;;;;;12.40;7.27;;;-2.00;99.90;;;;;;5060887;28;20280;-49
2023/11/30 03:29:02;;;;;;;11.10;7.97;;;-2.00;99.90;;;;;;5028202;28;20203;-47
2023/11/30 03:31:30;;;;;;;11.73;8.13;;;-2.00;99.90;;;;;;5060541;28;20214;-46
2023/11/30 03:33:57;;;;;;;11.17;8.10;;;-2.00;99.90;;;;;;5061302;28;20205;-47
2023/11/30 03:36:24;;;;;;;14.30;7.67;;;-2.10;99.90;;;;;;5058591;28;20981;-45
2023/11/30 03:38:53;;;;;;;12.20;7.83;;;-2.00;99.90;;;;;;5062888;28;20202;-47
2023/11/30 03:41:20;;;;;;;11.87;7.90;;;-2.00;99.90;;;;;;5048309;28;20197;-49
2023/11/30 03:43:47;;;;;;;11.83;7.57;;;-2.00;99.90;;;;;;5031492;28;20209;-46
2023/11/30 03:46:14;;;;;;;10.77;7.73;;;-2.00;99.90;;;;;;5058899;28;20207;-48
2023/11/30 03:48:42;;;;;;;14.23;7.57;;;-2.00;99.90;;;;;;5061384;28;20198;-46
2023/11/30 03:51:10;;;;;;;11.90;7.93;;;-2.00;99.90;;;;;;5059874;28;20659;-48
2023/11/30 03:53:37;;;;;;;11.60;7.63;;;-2.00;99.90;;;;;;5061967;28;20205;-50
2023/11/30 03:56:04;;;;;;;11.93;7.83;;;-2.00;99.90;;;;;;5049928;28;20283;-48
2023/11/30 03:58:31;;;;;;;10.33;7.53;;;-2.10;99.90;;;;;;5019682;28;22462;-45
2023/11/30 04:00:58;;;;;;;12.60;7.67;;;-2.00;99.90;;;;;;5052929;28;20195;-48
2023/11/30 04:03:25;;;;;;;9.90;7.30;;;-2.00;99.90;;;;;;5057867;28;20208;-47
2023/11/30 04:05:53;;;;;;;11.57;8.10;;;-2.00;99.90;;;;;;5062035;28;20229;-47
2023/11/30 04:08:20;;;;;;;11.37;7.03;;;-2.10;99.90;;;;;;5056956;28;20273;-46
2023/11/30 04:10:47;;;;;;;9.87;6.87;;;-2.10;99.90;;;;;;5061770;28;20231;-48
2023/11/30 04:13:14;;;;;;;13.13;8.07;;;-2.10;99.90;;;;;;5020537;28;20700;-47
2023/11/30 04:15:41;;;;;;;10.73;7.90;;;-2.20;99.90;;;;;;5058985;28;20747;-45
2023/11/30 04:18:08;;;;;;;11.07;7.03;;;-2.20;99.90;;;;;;5058371;28;20264;-48
2023/11/30 04:20:34;;;;;;;11.37;8.27;;;-2.20;99.90;;;;;;5059662;28;20755;-48
2023/11/30 04:23:03;;;;;;;12.47;7.63;;;-2.20;99.90;;;;;;5060274;28;20204;-46
2023/11/30 04:25:30;;;;;;;11.53;7.27;;;-2.20;99.90;;;;;;5057355;28;20232;-47
2023/11/30 04:27:58;;;;;;;10.97;7.07;;;-2.10;99.90;;;;;;5037386;28;20202;-47
2023/11/30 04:30:24;;;;;;;10.00;7.47;;;-2.10;99.90;;;;;;5032590;28;20212;-49
2023/11/30 04:32:52;;;;;;;10.03;6.80;;;-2.20;99.90;;;;;;5058589;28;20285;-47
2023/11/30 04:35:19;;;;;;;10.57;7.30;;;-2.20;99.90;;;;;;5058471;28;20825;-46
2023/11/30 04:37:46;;;;;;;11.10;7.10;;;-2.30;99.90;;;;;;5060233;28;20262;-48
2023/11/30 04:40:14;;;;;;;10.23;7.10;;;-2.30;99.90;;;;;;5058766;28;20259;-49
2023/11/30 04:42:42;;;;;;;11.50;7.90;;;-2.40;99.90;;;;;;5052973;28;20209;-46
2023/11/30 04:45:09;;;;;;;9.40;7.27;;;-2.40;99.90;;;;;;5030501;28;20224;-46
2023/11/30 04:47:36;;;;;;;10.27;7.47;;;-2.40;99.90;;;;;;5055931;28;20245;-47
2023/11/30 04:50:03;;;;;;;11.03;7.53;;;-2.50;99.90;;;;;;5054209;28;20251;-49
2023/11/30 04:52:30;;;;;;;8.80;6.73;;;-2.60;99.90;;;;;;5052191;28;20212;-46
2023/11/30 04:54:57;;;;;;;13.40;7.77;;;-2.60;99.90;;;;;;5054618;28;20215;-48
2023/11/30 04:57:25;;;;;;;9.13;6.77;;;-2.60;99.90;;;;;;5059922;28;20220;-47
2023/11/30 04:59:52;;;;;;;11.67;7.23;;;-2.60;99.90;;;;;;5024002;28;20219;-52
2023/11/30 05:02:20;;;;;;;10.70;7.83;;;-2.70;99.90;;;;;;5058660;28;20195;-45
2023/11/30 05:04:46;;;;;;;10.87;6.90;;;-2.80;99.90;;;;;;5061323;28;20263;-53
2023/11/30 05:07:13;;;;;;;9.57;6.37;;;-2.80;99.90;;;;;;5046672;28;20204;-46
2023/11/30 05:09:40;;;;;;;9.40;6.53;;;-2.90;99.90;;;;;;5062844;28;20253;-46
2023/11/30 05:12:07;;;;;;;10.13;7.43;;;-3.00;99.90;;;;;;5055730;28;20199;-47
2023/11/30 05:14:36;;;;;;;13.73;7.80;;;-3.10;99.90;;;;;;5049708;28;20365;-46
2023/11/30 05:17:03;;;;;;;11.70;7.93;;;-3.20;99.90;;;;;;5021222;28;20215;-46
2023/11/30 05:19:30;;;;;;;9.63;7.23;;;-3.20;99.90;;;;;;5057950;28;20196;-47
2023/11/30 05:21:56;;;;;;;9.80;7.27;;;-3.40;99.90;;;;;;5053133;28;20611;-44
2023/11/30 05:24:23;;;;;;;12.20;7.87;;;-3.40;99.90;;;;;;5036292;28;20294;-48
2023/11/30 05:26:50;;;;;;;10.97;7.87;;;-3.30;99.90;;;;;;5059512;28;20185;-52
2023/11/30 05:29:17;;;;;;;10.73;7.07;;;-3.30;99.90;;;;;;5048890;28;20199;-49
2023/11/30 05:31:45;;;;;;;14.63;8.43;;;-3.40;99.90;;;;;;5030696;28;20261;-47
2023/11/30 05:34:12;;;;;;;13.17;7.27;;;-3.50;99.90;;;;;;5057190;28;20218;-48
2023/11/30 05:36:39;;;;;;;12.33;7.67;;;-3.50;99.90;;;;;;5056315;28;20321;-47
2023/11/30 05:39:06;;;;;;;13.43;7.97;;;-3.40;99.90;;;;;;5051231;28;20263;-54
2023/11/30 05:41:33;;;;;;;12.37;7.30;;;-3.50;99.90;;;;;;5065536;28;20223;-47
2023/11/30 05:44:00;;;;;;;11.80;7.60;;;-3.60;99.90;;;;;;5053826;28;20200;-52
2023/11/30 05:46:27;;;;;;;10.63;6.90;;;-3.60;99.90;;;;;;5032917;28;20226;-54
2023/11/30 05:48:56;;;;;;;13.67;7.13;;;-3.50;99.90;;;;;;5060836;28;20207;-50
2023/11/30 05:51:23;;;;;;;11.50;7.63;;;-3.50;99.90;;;;;;5055275;28;20287;-54
2023/11/30 05:53:49;;;;;;;13.33;7.30;;;-3.50;99.90;;;;;;5051965;28;20431;-52
2023/11/30 05:56:16;;;;;;;11.63;7.63;;;-3.60;99.90;;;;;;5060805;28;20629;-54
2023/11/30 05:58:43;;;;;;;11.93;8.23;;;-3.80;99.90;;;;;;5049698;28;20203;-47
2023/11/30 06:01:10;;;;;;;9.33;7.27;;;-3.80;99.90;;;;;;5033183;28;20565;-52
2023/11/30 06:03:37;;;;;;;11.57;8.00;;;-3.90;99.90;;;;;;5059782;28;20419;-48
2023/11/30 06:06:09;;;;;;;10.87;7.40;;;-3.80;99.90;;;;;;5063081;28;20234;-51
2023/11/30 06:08:36;;;;;;;10.93;7.23;;;-3.80;99.90;;;;;;5040987;28;20211;-50
2023/11/30 06:11:03;;;;;;;10.77;7.27;;;-3.80;99.90;;;;;;5057326;28;20215;-55
2023/11/30 06:13:29;;;;;;;12.17;7.17;;;-3.80;99.90;;;;;;5057321;28;20191;-54
2023/11/30 06:15:56;;;;;;;14.67;7.77;;;-3.90;99.90;;;;;;5021702;28;20230;-52
2023/11/30 06:18:23;;;;;;;12.73;7.77;;;-4.00;99.90;;;;;;5063672;28;20196;-54
2023/11/30 06:20:50;;;;;;;12.27;7.70;;;-4.00;99.90;;;;;;5058489;28;20248;-47
2023/11/30 06:23:18;;;;;;;11.07;7.50;;;-4.10;99.90;;;;;;5055678;28;20203;-53
2023/11/30 06:25:45;;;;;;;13.23;7.57;;;-4.00;99.90;;;;;;5054188;28;20632;-47
2023/11/30 06:28:12;;;;;;;12.23;7.40;;;-4.00;99.90;;;;;;5062887;28;20195;-49
2023/11/30 06:30:39;;;;;;;13.33;7.13;;;-4.00;99.90;;;;;;5049419;28;20672;-48
2023/11/30 06:33:06;;;;;;;14.37;8.37;;;-4.10;99.90;;;;;;5022927;28;20956;-51
2023/11/30 06:35:33;;;;;;;11.17;7.00;;;-4.10;99.90;;;;;;5052145;28;20260;-51
2023/11/30 06:38:00;;;;;;;11.43;7.43;;;-4.10;99.90;;;;;;5047940;28;21107;-50
2023/11/30 06:40:29;;;;;;;13.00;8.13;;;-4.20;99.90;;;;;;5042968;28;20779;-49
2023/11/30 06:42:56;;;;;;;9.53;6.47;;;-4.30;99.90;;;;;;5054984;28;20215;-51
2023/11/30 06:45:22;;;;;;;10.23;6.80;;;-4.40;99.90;;;;;;5062061;28;20659;-53
2023/11/30 06:47:49;;;;;;;13.07;7.70;;;-4.50;99.90;;;;;;5022726;28;21589;-50
2023/11/30 06:50:16;;;;;;;11.60;6.87;;;-4.50;99.90;;;;;;5063258;28;20203;-49
2023/11/30 06:52:43;;;;;;;13.03;6.73;;;-4.50;99.90;;;;;;5059603;28;20577;-51
2023/11/30 06:55:10;;;;;;;9.67;7.23;;;-4.60;99.90;;;;;;5051943;28;20211;-49
2023/11/30 06:57:38;;;;;;;10.97;7.13;;;-4.60;99.90;;;;;;5060096;28;20308;-48
2023/11/30 07:00:08;;;;;;;14.00;7.73;;;-4.60;99.90;;;;;;5059985;28;20913;-46
2023/11/30 07:02:35;;;;;;;10.73;7.67;;;-4.70;99.90;;;;;;5052246;28;20217;-48
2023/11/30 07:05:05;;;;;;;13.23;7.27;;;-4.70;99.90;;;;;;5032470;28;20214;-51
2023/11/30 07:07:32;;;;;;;10.97;7.47;;;-4.60;99.90;;;;;;5061870;28;20249;-48
2023/11/30 07:09:58;;;;;;;11.70;7.50;;;-4.60;99.90;;;;;;5049318;28;20906;-52
2023/11/30 07:12:25;;;;;;;12.97;7.50;;;-4.70;99.90;;;;;;5062420;28;20616;-52
2023/11/30 07:14:53;;;;;;;12.73;7.20;;;-4.70;99.90;;;;;;5058380;28;20214;-50
2023/11/30 07:17:23;;;;;;;11.57;7.63;;;-4.70;99.90;;;;;;5053447;28;20238;-52
2023/11/30 07:19:50;;;;;;;8.73;6.60;;;-4.70;99.90;;;;;;5031100;28;20214;-49
2023/11/30 07:22:17;;;;;;;11.93;7.50;;;-4.60;99.90;;;;;;5052554;28;20762;-54
2023/11/30 07:24:46;;;;;;;10.93;6.90;;;-4.80;99.90;;;;;;5050961;28;20287;-48
2023/11/30 07:27:13;;;;;;;9.97;7.13;;;-4.90;99.90;;;;;;5062710;28;20202;-49
2023/11/30 07:29:39;;;;;;;11.40;7.17;;;-4.90;99.90;;;;;;5048480;28;20295;-46
2023/11/30 07:32:08;;;;;;;11.67;6.97;;;-4.90;99.90;;;;;;5061639;28;20194;-51
2023/11/30 07:34:36;;;;;;;12.97;7.60;;;-4.90;99.90;;;;;;5049463;28;20221;-53
2023/11/30 07:37:03;;;;;;;14.50;7.63;;;-4.90;99.90;;;;;;5028920;28;20253;-51
2023/11/30 07:39:30;;;;;;;11.13;7.23;;;-4.80;99.90;;;;;;5058814;28;20256;-49
2023/11/30 07:41:57;;;;;;;12.17;7.77;;;-4.80;99.90;;;;;;5051414;28;20206;-52
2023/11/30 07:44:26;;;;;;;12.80;7.47;;;-4.80;99.90;;;;;;5059842;28;20207;-48
2023/11/30 07:46:53;;;;;;;11.63;6.80;;;-4.70;99.90;;;;;;5061225;28;20245;-50
2023/11/30 07:49:21;;;;;;;10.97;6.97;;;-4.60;99.90;;;;;;5052049;28;20264;-48
2023/11/30 07:51:48;;;;;;;13.50;7.83;;;-4.70;99.90;;;;;;5031317;28;20944;-53
2023/11/30 07:54:15;;;;;;;11.83;7.20;;;-4.60;99.90;;;;;;5061233;28;20536;-49
2023/11/30 07:56:41;;;;;;;10.60;7.63;;;-4.60;99.90;;;;;;5038600;28;20229;-50
2023/11/30 07:59:12;;;;;;;13.90;8.37;;;-4.60;99.90;;;;;;5047009;28;20291;-47
2023/11/30 08:01:39;;;;;;;12.83;7.67;;;-4.60;99.90;;;;;;5054650;28;20224;-52
2023/11/30 08:04:05;;;;;;;14.27;8.00;;;-4.60;99.90;;;;;;5036412;28;20284;-49
2023/11/30 08:06:34;;;;;;;13.43;8.43;;;-4.60;99.90;;;;;;5031558;28;20199;-49
2023/11/30 08:09:01;;;;;;;14.53;8.40;;;-4.50;99.90;;;;;;5037654;28;20211;-46
2023/11/30 08:11:28;;;;;;;12.70;8.57;;;-4.40;99.90;;;;;;5059711;28;20199;-49
2023/11/30 08:13:55;;;;;;;11.73;8.07;;;-4.40;99.90;;;;;;5050131;28;20205;-47
2023/11/30 08:16:23;;;;;;;11.97;7.70;;;-4.30;99.90;;;;;;5050189;28;20983;-53
2023/11/30 08:18:50;;;;;;;15.40;8.13;;;-4.30;99.90;;;;;;5060583;28;20187;-51
2023/11/30 08:21:17;;;;;;;15.80;8.93;;;-4.20;99.90;;;;;;5019123;28;20859;-53
2023/11/30 08:23:45;;;;;;;12.80;8.90;;;-4.10;99.90;;;;;;5049977;28;20240;-49
2023/11/30 08:26:15;;;;;;;11.70;8.00;;;-4.00;99.90;;;;;;5057759;28;20195;-53
2023/11/30 08:28:42;;;;;;;11.17;7.33;;;-3.90;99.90;;;;;;5051515;28;20203;-47
2023/11/30 08:31:08;;;;;;;15.77;8.73;;;-3.80;99.90;;;;;;5056543;28;20195;-51
2023/11/30 08:33:35;;;;;;;11.83;8.40;;;-3.80;99.90;;;;;;5054226;28;20280;-50
2023/11/30 08:36:04;;;;;;;12.63;8.07;;;-3.80;99.90;;;;;;5047310;28;20230;-50
2023/11/30 08:38:31;;;;;;;15.87;8.63;;;-3.80;99.90;;;;;;5029883;28;20680;-50
2023/11/30 08:40:59;;;;;;;12.17;8.10;;;-3.70;99.90;;;;;;5051200;28;20202;-50
2023/11/30 08:43:26;;;;;;;14.73;9.20;;;-3.70;99.90;;;;;;5056496;28;20228;-51
2023/11/30 08:45:53;;;;;;;12.17;8.23;;;-3.50;99.90;;;;;;5046651;28;20218;-47
2023/11/30 08:48:20;;;;;;;14.13;9.03;;;-3.50;99.90;;;;;;5041612;28;20223;-52
2023/11/30 08:50:47;;;;;;;13.83;8.00;;;-3.40;99.90;;;;;;5057960;28;20260;-46
2023/11/30 08:53:15;;;;;;;14.63;8.40;;;-3.30;99.90;;;;;;5020923;28;21446;-53
2023/11/30 08:55:44;;;;;;;13.90;9.30;;;-3.30;99.90;;;;;;5053256;28;20244;-51
2023/11/30 08:58:12;;;;;;;14.03;8.63;;;-3.20;99.90;;;;;;5056648;28;20290;-50
2023/11/30 09:00:40;;;;;;;11.67;8.87;;;-3.20;99.90;;;;;;5049438;28;20542;-50
2023/11/30 09:03:07;;;;;;;13.43;9.03;;;-3.10;99.90;;;;;;5056601;28;20299;-47
2023/11/30 09:05:34;;;;;;;15.20;9.80;;;-2.90;99.90;;;;;;5044973;28;21575;-52
2023/11/30 09:08:02;;;;;;;17.63;9.73;;;-2.60;99.90;;;;;;5013043;28;20722;-48
2023/11/30 09:10:29;;;;;;;11.17;8.13;;;-2.40;99.90;;;;;;5035035;28;20210;-51
2023/11/30 09:12:56;;;;;;;15.37;9.23;;;-2.40;99.90;;;;;;5051856;28;21246;-51
2023/11/30 09:15:24;;;;;;;18.67;11.07;;;-2.40;99.90;;;;;;5040101;28;20230;-46
2023/11/30 09:17:51;;;;;;;14.77;9.83;;;-2.40;99.90;;;;;;5046483;28;20724;-49
2023/11/30 09:20:19;;;;;;;16.40;10.57;;;-2.40;99.90;;;;;;5054616;28;20203;-50
2023/11/30 09:22:47;;;;;;;17.33;11.07;;;-2.40;99.90;;;;;;5052673;28;20299;-48
2023/11/30 09:25:13;;;;;;;16.47;10.90;;;-2.40;99.90;;;;;;5037335;28;20277;-49
2023/11/30 09:27:40;;;;;;;19.07;10.23;;;-2.30;99.90;;;;;;5053577;28;20208;-49
2023/11/30 09:30:09;;;;;;;16.97;10.73;;;-2.20;99.90;;;;;;5054005;28;20208;-51
2023/11/30 09:32:37;;;;;;;15.47;10.33;;;-2.10;99.90;;;;;;5051649;28;20271;-48
2023/11/30 09:35:05;;;;;;;15.67;10.40;;;-1.90;99.90;;;;;;5061792;28;20211;-50
2023/11/30 09:37:32;;;;;;;15.67;11.13;;;-1.80;99.90;;;;;;5043405;28;20214;-48
2023/11/30 09:39:59;;;;;;;17.67;11.07;;;-1.80;99.90;;;;;;5036810;28;20219;-48
2023/11/30 09:42:26;;;;;;;16.53;11.33;;;-1.80;99.90;;;;;;5053303;28;20827;-47
2023/11/30 09:44:54;;;;;;;17.37;11.27;;;-1.80;99.90;;;;;;5050016;28;20457;-52
2023/11/30 09:47:21;;;;;;;21.00;11.13;;;-1.80;99.90;;;;;;5052098;28;20200;-50
2023/11/30 09:49:50;;;;;;;19.30;11.83;;;-1.70;99.90;;;;;;5062536;28;20200;-50
2023/11/30 09:52:17;;;;;;;21.93;11.43;;;-1.70;99.90;;;;;;5055774;28;20201;-47
2023/11/30 09:54:44;;;;;;;25.27;11.57;;;-1.70;99.90;;;;;;5025935;28;21347;-52
2023/11/30 09:57:11;;;;;;;18.67;11.33;;;-1.60;99.90;;;;;;5064815;28;20571;-51
2023/11/30 09:59:38;;;;;;;22.23;11.47;;;-1.60;99.90;;;;;;5048785;28;20192;-50
2023/11/30 10:02:09;;;;;;;17.57;11.00;;;-1.60;99.90;;;;;;5044563;28;20197;-47
2023/11/30 10:04:36;;;;;;;19.63;11.50;;;-1.60;99.90;;;;;;5060459;28;20819;-49
2023/11/30 10:07:05;;;;;;;18.27;11.13;;;-1.50;99.90;;;;;;5059889;28;20249;-53
2023/11/30 10:09:35;;;;;;;20.33;12.30;;;-1.50;99.90;;;;;;5051312;28;20261;-47
2023/11/30 10:12:02;;;;;;;18.17;11.53;;;-1.50;99.90;;;;;;5035256;28;20208;-50
2023/11/30 10:14:29;;;;;;;22.23;11.67;;;-1.40;99.90;;;;;;5053266;28;20224;-45
2023/11/30 10:16:56;;;;;;;18.63;10.63;;;-1.40;99.90;;;;;;5043330;28;20229;-54
2023/11/30 10:19:23;;;;;;;18.10;11.50;;;-1.30;99.90;;;;;;5062186;28;20199;-53
2023/11/30 10:21:50;;;;;;;20.57;12.10;;;-1.30;99.90;;;;;;5060501;28;20395;-49
2023/11/30 10:24:18;;;;;;;19.07;11.33;;;-1.30;99.90;;;;;;5052413;28;20302;-48
2023/11/30 10:26:50;;;;;;;19.37;12.03;;;-1.20;99.90;;;;;;5033294;28;20296;-49
2023/11/30 10:29:20;;;;;;;20.23;11.43;;;-1.20;99.90;;;;;;5054813;28;20197;-47
2023/11/30 10:31:49;;;;;;;22.77;12.53;;;-1.10;99.90;;;;;;5045815;28;20193;-53
2023/11/30 10:34:21;;;;;;;18.90;11.40;;;-1.10;99.90;;;;;;5053573;28;20248;-51
2023/11/30 10:36:47;;;;;;;22.33;12.63;;;-1.10;99.90;;;;;;5058724;28;20924;-50
2023/11/30 10:39:16;;;;;;;18.90;11.40;;;-1.00;99.90;;;;;;5053445;28;20241;-54
2023/11/30 10:41:51;;;;;;;20.30;11.00;;;-1.00;99.90;;;;;;5034649;28;20202;-49
2023/11/30 10:44:26;;;;;;;20.50;12.73;;;-1.00;99.90;;;;;;5054277;28;20217;-48
2023/11/30 10:46:54;;;;;;;23.87;12.27;;;-0.90;99.90;;;;;;5051211;28;20508;-53
2023/11/30 10:49:23;;;;;;;24.53;12.93;;;-0.90;99.90;;;;;;5052345;28;20276;-47
2023/11/30 10:51:51;;;;;;;22.77;12.90;;;-0.80;99.90;;;;;;5061436;28;20204;-54
2023/11/30 10:54:26;;;;;;;25.27;12.87;;;-0.80;99.90;;;;;;5033279;28;20233;-50
2023/11/30 10:56:54;;;;;;;20.60;11.83;;;-0.70;99.90;;;;;;5032937;28;20209;-50
2023/11/30 10:59:23;;;;;;;20.00;12.60;;;-0.70;99.90;;;;;;5050673;28;22539;-54
2023/11/30 11:01:50;;;;;;;20.20;12.27;;;-0.70;99.90;;;;;;5038069;28;20519;-49
2023/11/30 11:04:17;;;;;;;21.83;11.90;;;-0.70;99.90;;;;;;5051874;28;20222;-51
2023/11/30 11:06:45;;;;;;;21.27;12.97;;;-0.70;99.90;;;;;;5052323;28;20201;-48
2023/11/30 11:09:15;;;;;;;21.37;12.93;;;-0.70;99.90;;;;;;5060961;28;20201;-51
2023/11/30 11:11:43;;;;;;;22.27;13.63;;;-0.60;99.90;;;;;;5036868;28;20574;-48
2023/11/30 11:14:29;;;;;;;21.40;12.67;;;-0.60;99.90;;;;;;5053498;28;20304;-51
2023/11/30 11:17:06;;;;;;;18.90;11.77;;;-0.60;99.90;;;;;;5041413;28;20204;-50
2023/11/30 11:19:33;;;;;;;21.77;10.47;;;-0.50;99.90;;;;;;5051261;28;20226;-49
2023/11/30 11:22:00;;;;;;;19.87;10.77;;;-0.50;99.90;;;;;;5057590;28;20270;-50
2023/11/30 11:24:27;;;;;;;20.23;11.17;;;-0.50;99.90;;;;;;5061159;28;20279;-52
2023/11/30 11:26:59;;;;;;;17.97;10.83;;;-0.50;99.90;;;;;;5022417;28;20278;-49
2023/11/30 11:29:29;;;;;;;20.00;10.97;;;-0.40;99.90;;;;;;5062921;28;20321;-53
2023/11/30 11:31:58;;;;;;;16.33;10.43;;;-0.40;99.90;;;;;;5050272;28;20275;-53
2023/11/30 11:34:25;;;;;;;16.77;10.30;;;-0.40;99.90;;;;;;5050261;28;20249;-50
2023/11/30 11:36:52;;;;;;;19.13;11.07;;;-0.30;99.90;;;;;;5058809;28;20970;-53
2023/11/30 11:39:18;;;;;;;17.83;10.63;;;-0.30;99.90;;;;;;5062168;28;20222;-49
2023/11/30 11:41:47;;;;;;;17.67;11.27;;;-0.30;99.90;;;;;;5053329;28;20198;-49
2023/11/30 11:44:13;;;;;;;20.57;10.77;;;-0.30;99.90;;;;;;5033466;28;20325;-49
2023/11/30 11:46:42;;;;;;;17.63;10.43;;;-0.30;99.90;;;;;;5052784;28;20209;-50
2023/11/30 11:49:09;;;;;;;15.57;10.23;;;-0.30;99.90;;;;;;5049124;28;20389;-49
2023/11/30 11:51:44;;;;;;;19.27;11.37;;;-0.30;99.90;;;;;;5060764;28;20202;-51
2023/11/30 11:54:17;;;;;;;17.83;11.43;;;-0.20;99.90;;;;;;5057780;28;20477;-48
2023/11/30 11:56:48;;;;;;;18.33;11.60;;;-0.20;99.90;;;;;;5058184;28;20190;-48
2023/11/30 11:59:22;;;;;;;18.57;12.17;;;-0.30;99.90;;;;;;5023287;28;20221;-48
2023/11/30 12:01:51;;;;;;;18.30;11.60;;;-0.20;99.90;;;;;;5049543;28;20202;-52
2023/11/30 12:04:28;;;;;;;19.07;11.23;;;-0.20;99.90;;;;;;5050815;28;20222;-48
2023/11/30 12:06:54;;;;;;;17.37;12.07;;;-0.20;99.90;;;;;;5058165;28;20290;-47
2023/11/30 12:09:21;;;;;;;21.80;11.00;;;-0.10;99.90;;;;;;5061031;28;20195;-49
2023/11/30 12:11:48;;;;;;;16.30;10.50;;;-0.10;99.90;;;;;;5058249;28;20259;-50
2023/11/30 12:14:15;;;;;;;14.40;9.60;;;-0.10;99.90;;;;;;5030866;28;20217;-49
2023/11/30 12:16:43;;;;;;;16.57;9.57;;;-0.10;99.90;;;;;;5049274;28;20676;-47
2023/11/30 12:19:11;;;;;;;14.40;8.83;;;-0.10;99.90;;;;;;5059231;28;20326;-49
2023/11/30 12:21:37;;;;;;;13.73;8.73;;;-0.10;99.90;;;;;;5048752;28;20790;-46
2023/11/30 12:24:04;;;;;;;14.30;9.03;;;-0.10;99.90;;;;;;5052193;28;20206;-49
2023/11/30 12:26:31;;;;;;;13.87;8.77;;;-0.10;99.90;;;;;;5061166;28;20253;-46
2023/11/30 12:28:58;;;;;;;13.57;9.10;;;-0.10;99.90;;;;;;5051440;28;20259;-47
2023/11/30 12:31:25;;;;;;;15.20;9.63;;;-0.10;99.90;;;;;;5023193;28;20293;-50
2023/11/30 12:33:52;;;;;;;14.10;9.67;;;-0.20;99.90;;;;;;5041103;28;20391;-48
2023/11/30 12:36:20;;;;;;;12.17;9.07;;;-0.20;99.90;;;;;;5045023;28;20197;-47